Impacts METAR Board INFO
IDs:

KDFW - Dallas-Ft Worth Intl, TX, US

Updated at: 2029 UTC 18 Dec 2017
Potential Impact None Slight Moderate High
Time18/08Z 18/09Z 18/10Z 18/11Z 18/12Z 18/13Z 18/14Z 18/15Z 18/16Z 18/17Z 18/18Z 18/19Z 18/20Z
VIS2 2 3 1.5 0.25 0.25 0.25 0.25 1.25 1.25 1.25 2.5 2.5
CIG3 4 4 2 2 2 2 2 3 5 5 5 6
CoverOVCOVCOVCOVCOVCOVCOVCOVCOVCOVCOVCOVCOVC
FltCatLIFRLIFRLIFRLIFRLIFRLIFRLIFRLIFRLIFRIFRIFRIFRIFR
WX-DZ BR-DZ BRBRBRBRBRFGBRBRBRBRBRBR
WDir15000001401301401001301501900
WSpd3 0 0 0 0 4 4 6 5 7 5 7 0
WGst-- -- -- -- -- -- -- -- -- -- -- -- --
Raw hourly METARs
KDFW 180753Z 15003KT 2SM -DZ BR OVC003 10/09 A3013 RMK AO2 DZB53 SLP201 P0000 T01000089 $
KDFW 180853Z 00000KT 2SM -DZ BR OVC004 10/09 A3013 RMK AO2 DZE29B52 SLP203 P0000 60000 T01000089 53006 $
KDFW 180953Z 00000KT 3SM BR OVC004 10/09 A3013 RMK AO2 DZE18 SLP201 P0000 T01000089 $
KDFW 181053Z 00000KT 1 1/2SM BR OVC002 10/09 A3014 RMK AO2 SLP203 T01000089 $
KDFW 181153Z 00000KT 1/4SM R17C/P6000FT BR OVC002 09/09 A3015 RMK AO2 SFC VIS 1 1/2 SLP209 60000 T00940089 10100 20094 53006 $
KDFW 181253Z 14004KT 1/4SM R17C/P6000FT BR OVC002 09/08 A3016 RMK AO2 SFC VIS 1 1/4 SLP211 T00940083 $
KDFW 181353Z COR 13004KT 1/4SM R17C/4500VP6000FT FG OVC002 09/09 A3017 RMK AO2 SFC VIS 1 SLP215 T00940089 $
KDFW 181453Z 14006KT 1/4SM R17C/P6000FT BR OVC002 09/08 A3019 RMK AO2 SFC VIS 1 3/4 SLP220 T00940083 53011 $
KDFW 181600Z 10005KT 1 1/4SM BR OVC003 10/08 A3019 RMK AO2 SFC VIS 2 T01000083 $
KDFW 181653Z 13007KT 1 1/4SM BR OVC005 11/08 A3020 RMK AO2 SFC VIS 3 SLP225 T01060083 $
KDFW 181753Z 15005KT 1 1/4SM BR OVC005 11/09 A3018 RMK AO2 SFC VIS 3 SLP218 T01060089 10106 20094 58002
KDFW 181853Z 19007KT 2 1/2SM BR OVC005 11/09 A3015 RMK AO2 SFC VIS 4 SLP209 T01110089
KDFW 181953Z 00000KT 2 1/2SM BR OVC006 12/09 A3013 RMK AO2 SFC VIS 5 SLP199 T01170094